sensor_id;sensor_type;location;lat;lon;timestamp;P1;durP1;ratioP1;P2;durP2;ratioP2
15968;SDS011;8085;53.472;9.794;2024-03-02T00:00:48;13.52;;;6.70;;
15968;SDS011;8085;53.472;9.794;2024-03-02T00:03:17;11.93;;;6.53;;
15968;SDS011;8085;53.472;9.794;2024-03-02T00:05:44;13.75;;;7.32;;
15968;SDS011;8085;53.472;9.794;2024-03-02T00:08:18;15.02;;;7.20;;
15968;SDS011;8085;53.472;9.794;2024-03-02T00:10:50;12.35;;;6.88;;
15968;SDS011;8085;53.472;9.794;2024-03-02T00:13:19;17.33;;;8.50;;
15968;SDS011;8085;53.472;9.794;2024-03-02T00:15:50;16.20;;;7.70;;
15968;SDS011;8085;53.472;9.794;2024-03-02T00:18:20;15.00;;;8.45;;
15968;SDS011;8085;53.472;9.794;2024-03-02T00:20:52;14.70;;;7.78;;
15968;SDS011;8085;53.472;9.794;2024-03-02T00:23:21;15.02;;;7.60;;
15968;SDS011;8085;53.472;9.794;2024-03-02T00:25:48;13.45;;;7.50;;
15968;SDS011;8085;53.472;9.794;2024-03-02T00:28:19;12.57;;;7.18;;
15968;SDS011;8085;53.472;9.794;2024-03-02T00:30:57;12.77;;;7.18;;
15968;SDS011;8085;53.472;9.794;2024-03-02T00:33:30;13.90;;;7.00;;
15968;SDS011;8085;53.472;9.794;2024-03-02T00:35:59;14.38;;;7.63;;
15968;SDS011;8085;53.472;9.794;2024-03-02T00:38:26;11.68;;;7.32;;
15968;SDS011;8085;53.472;9.794;2024-03-02T00:40:53;11.55;;;6.63;;
15968;SDS011;8085;53.472;9.794;2024-03-02T00:46:17;13.80;;;7.57;;
15968;SDS011;8085;53.472;9.794;2024-03-02T00:48:51;12.35;;;6.70;;
15968;SDS011;8085;53.472;9.794;2024-03-02T00:51:20;14.68;;;7.30;;
15968;SDS011;8085;53.472;9.794;2024-03-02T00:53:48;12.48;;;7.10;;
15968;SDS011;8085;53.472;9.794;2024-03-02T00:56:15;14.45;;;7.57;;
15968;SDS011;8085;53.472;9.794;2024-03-02T00:58:43;14.15;;;7.47;;
15968;SDS011;8085;53.472;9.794;2024-03-02T01:01:10;16.55;;;7.55;;
15968;SDS011;8085;53.472;9.794;2024-03-02T01:03:37;15.38;;;7.95;;
15968;SDS011;8085;53.472;9.794;2024-03-02T01:06:05;15.15;;;8.07;;
15968;SDS011;8085;53.472;9.794;2024-03-02T01:08:33;14.35;;;7.78;;
15968;SDS011;8085;53.472;9.794;2024-03-02T01:11:00;14.35;;;7.65;;
15968;SDS011;8085;53.472;9.794;2024-03-02T01:13:28;12.95;;;7.38;;
15968;SDS011;8085;53.472;9.794;2024-03-02T01:15:55;12.68;;;7.30;;
15968;SDS011;8085;53.472;9.794;2024-03-02T01:18:21;13.90;;;7.47;;
15968;SDS011;8085;53.472;9.794;2024-03-02T01:20:48;14.90;;;7.47;;
15968;SDS011;8085;53.472;9.794;2024-03-02T01:23:18;16.80;;;7.97;;
15968;SDS011;8085;53.472;9.794;2024-03-02T01:25:45;14.65;;;7.57;;
15968;SDS011;8085;53.472;9.794;2024-03-02T01:28:12;14.68;;;8.13;;
15968;SDS011;8085;53.472;9.794;2024-03-02T01:30:39;14.20;;;8.00;;
15968;SDS011;8085;53.472;9.794;2024-03-02T01:33:06;19.08;;;8.43;;
15968;SDS011;8085;53.472;9.794;2024-03-02T01:35:33;14.63;;;8.13;;
15968;SDS011;8085;53.472;9.794;2024-03-02T01:38:01;17.70;;;8.10;;
15968;SDS011;8085;53.472;9.794;2024-03-02T01:40:29;13.48;;;7.55;;
15968;SDS011;8085;53.472;9.794;2024-03-02T01:42:56;15.82;;;8.55;;
15968;SDS011;8085;53.472;9.794;2024-03-02T01:45:24;14.70;;;8.25;;
15968;SDS011;8085;53.472;9.794;2024-03-02T01:47:51;18.98;;;8.73;;
15968;SDS011;8085;53.472;9.794;2024-03-02T01:50:24;15.35;;;8.52;;
15968;SDS011;8085;53.472;9.794;2024-03-02T01:52:52;17.33;;;9.27;;
15968;SDS011;8085;53.472;9.794;2024-03-02T01:55:19;16.65;;;8.55;;
15968;SDS011;8085;53.472;9.794;2024-03-02T01:57:48;15.05;;;8.57;;
15968;SDS011;8085;53.472;9.794;2024-03-02T02:00:16;16.13;;;8.38;;
15968;SDS011;8085;53.472;9.794;2024-03-02T02:02:43;16.23;;;8.75;;
15968;SDS011;8085;53.472;9.794;2024-03-02T02:05:10;18.17;;;9.40;;
15968;SDS011;8085;53.472;9.794;2024-03-02T02:07:37;15.57;;;8.07;;
15968;SDS011;8085;53.472;9.794;2024-03-02T02:10:04;14.10;;;8.73;;
15968;SDS011;8085;53.472;9.794;2024-03-02T02:12:32;15.65;;;9.07;;
15968;SDS011;8085;53.472;9.794;2024-03-02T02:15:00;15.60;;;8.55;;
15968;SDS011;8085;53.472;9.794;2024-03-02T02:17:27;16.13;;;8.93;;
15968;SDS011;8085;53.472;9.794;2024-03-02T02:19:54;13.82;;;7.97;;
15968;SDS011;8085;53.472;9.794;2024-03-02T02:22:22;16.38;;;9.50;;
15968;SDS011;8085;53.472;9.794;2024-03-02T02:24:49;15.05;;;8.57;;
15968;SDS011;8085;53.472;9.794;2024-03-02T02:27:16;14.85;;;7.70;;
15968;SDS011;8085;53.472;9.794;2024-03-02T02:29:43;14.77;;;8.15;;
15968;SDS011;8085;53.472;9.794;2024-03-02T02:32:10;15.23;;;8.32;;
15968;SDS011;8085;53.472;9.794;2024-03-02T02:34:36;16.13;;;8.35;;
15968;SDS011;8085;53.472;9.794;2024-03-02T02:37:03;16.92;;;8.55;;
15968;SDS011;8085;53.472;9.794;2024-03-02T02:39:32;14.52;;;8.10;;
15968;SDS011;8085;53.472;9.794;2024-03-02T02:41:59;14.80;;;7.78;;
15968;SDS011;8085;53.472;9.794;2024-03-02T02:44:27;13.18;;;8.02;;
15968;SDS011;8085;53.472;9.794;2024-03-02T02:46:54;14.27;;;8.80;;
15968;SDS011;8085;53.472;9.794;2024-03-02T02:49:21;15.27;;;8.38;;
15968;SDS011;8085;53.472;9.794;2024-03-02T02:51:48;14.88;;;9.23;;
15968;SDS011;8085;53.472;9.794;2024-03-02T02:54:15;18.95;;;8.68;;
15968;SDS011;8085;53.472;9.794;2024-03-02T02:56:43;13.88;;;8.50;;
15968;SDS011;8085;53.472;9.794;2024-03-02T02:59:10;15.40;;;8.75;;
15968;SDS011;8085;53.472;9.794;2024-03-02T03:01:37;16.20;;;9.38;;
15968;SDS011;8085;53.472;9.794;2024-03-02T03:04:04;14.73;;;8.30;;
15968;SDS011;8085;53.472;9.794;2024-03-02T03:06:30;14.13;;;8.60;;
15968;SDS011;8085;53.472;9.794;2024-03-02T03:08:57;16.08;;;9.18;;
15968;SDS011;8085;53.472;9.794;2024-03-02T03:11:23;15.00;;;8.77;;
15968;SDS011;8085;53.472;9.794;2024-03-02T03:13:52;15.18;;;8.98;;
15968;SDS011;8085;53.472;9.794;2024-03-02T03:16:20;14.68;;;8.43;;
15968;SDS011;8085;53.472;9.794;2024-03-02T03:18:47;17.58;;;9.23;;
15968;SDS011;8085;53.472;9.794;2024-03-02T03:21:16;13.43;;;8.15;;
15968;SDS011;8085;53.472;9.794;2024-03-02T03:23:43;15.32;;;8.23;;
15968;SDS011;8085;53.472;9.794;2024-03-02T03:26:10;15.18;;;8.77;;
15968;SDS011;8085;53.472;9.794;2024-03-02T03:28:37;14.60;;;8.88;;
15968;SDS011;8085;53.472;9.794;2024-03-02T03:31:05;14.35;;;8.07;;
15968;SDS011;8085;53.472;9.794;2024-03-02T03:33:32;15.63;;;8.82;;
15968;SDS011;8085;53.472;9.794;2024-03-02T03:35:59;16.92;;;9.38;;
15968;SDS011;8085;53.472;9.794;2024-03-02T03:38:28;14.50;;;8.27;;
15968;SDS011;8085;53.472;9.794;2024-03-02T03:40:55;16.45;;;9.10;;
15968;SDS011;8085;53.472;9.794;2024-03-02T03:43:22;16.27;;;7.90;;
15968;SDS011;8085;53.472;9.794;2024-03-02T03:45:49;15.40;;;8.63;;
15968;SDS011;8085;53.472;9.794;2024-03-02T03:48:17;15.80;;;8.32;;
15968;SDS011;8085;53.472;9.794;2024-03-02T03:50:44;18.30;;;8.68;;
15968;SDS011;8085;53.472;9.794;2024-03-02T03:53:11;12.85;;;8.23;;
15968;SDS011;8085;53.472;9.794;2024-03-02T03:55:39;14.80;;;8.48;;
15968;SDS011;8085;53.472;9.794;2024-03-02T03:58:06;17.23;;;8.88;;
15968;SDS011;8085;53.472;9.794;2024-03-02T04:00:33;17.92;;;9.00;;
15968;SDS011;8085;53.472;9.794;2024-03-02T04:03:00;16.35;;;9.25;;
15968;SDS011;8085;53.472;9.794;2024-03-02T04:05:28;19.55;;;9.80;;
15968;SDS011;8085;53.472;9.794;2024-03-02T04:07:55;16.52;;;8.48;;
15968;SDS011;8085;53.472;9.794;2024-03-02T04:10:22;15.73;;;9.15;;
15968;SDS011;8085;53.472;9.794;2024-03-02T04:12:49;17.73;;;9.55;;
15968;SDS011;8085;53.472;9.794;2024-03-02T04:15:16;17.33;;;9.50;;
15968;SDS011;8085;53.472;9.794;2024-03-02T04:17:44;17.95;;;9.40;;
15968;SDS011;8085;53.472;9.794;2024-03-02T04:20:11;18.92;;;9.55;;
15968;SDS011;8085;53.472;9.794;2024-03-02T04:22:40;17.08;;;9.15;;
15968;SDS011;8085;53.472;9.794;2024-03-02T04:25:07;15.77;;;8.63;;
15968;SDS011;8085;53.472;9.794;2024-03-02T04:27:34;20.63;;;10.10;;
15968;SDS011;8085;53.472;9.794;2024-03-02T04:30:01;17.38;;;9.55;;
15968;SDS011;8085;53.472;9.794;2024-03-02T04:32:30;18.98;;;9.68;;
15968;SDS011;8085;53.472;9.794;2024-03-02T04:34:57;18.90;;;9.98;;
15968;SDS011;8085;53.472;9.794;2024-03-02T04:37:24;17.88;;;9.32;;
15968;SDS011;8085;53.472;9.794;2024-03-02T04:39:52;18.70;;;10.38;;
15968;SDS011;8085;53.472;9.794;2024-03-02T04:42:19;18.35;;;9.82;;
15968;SDS011;8085;53.472;9.794;2024-03-02T04:44:45;20.52;;;9.93;;
15968;SDS011;8085;53.472;9.794;2024-03-02T04:47:15;20.73;;;12.05;;
15968;SDS011;8085;53.472;9.794;2024-03-02T04:49:42;19.15;;;10.13;;
15968;SDS011;8085;53.472;9.794;2024-03-02T04:52:09;19.63;;;9.98;;
15968;SDS011;8085;53.472;9.794;2024-03-02T04:54:36;21.48;;;10.98;;
15968;SDS011;8085;53.472;9.794;2024-03-02T04:57:25;18.92;;;9.93;;
15968;SDS011;8085;53.472;9.794;2024-03-02T04:59:50;19.67;;;10.07;;
15968;SDS011;8085;53.472;9.794;2024-03-02T05:02:17;22.08;;;10.80;;
15968;SDS011;8085;53.472;9.794;2024-03-02T05:04:44;17.02;;;9.27;;
15968;SDS011;8085;53.472;9.794;2024-03-02T05:07:13;19.98;;;10.38;;
15968;SDS011;8085;53.472;9.794;2024-03-02T05:09:40;19.77;;;10.15;;
15968;SDS011;8085;53.472;9.794;2024-03-02T05:12:07;18.83;;;10.68;;
15968;SDS011;8085;53.472;9.794;2024-03-02T05:14:55;21.20;;;9.98;;
15968;SDS011;8085;53.472;9.794;2024-03-02T05:17:22;17.05;;;9.85;;
15968;SDS011;8085;53.472;9.794;2024-03-02T05:19:49;17.48;;;9.68;;
15968;SDS011;8085;53.472;9.794;2024-03-02T05:22:16;17.80;;;9.52;;
15968;SDS011;8085;53.472;9.794;2024-03-02T05:24:43;16.80;;;9.27;;
15968;SDS011;8085;53.472;9.794;2024-03-02T05:27:10;16.75;;;8.73;;
15968;SDS011;8085;53.472;9.794;2024-03-02T05:29:37;23.25;;;10.75;;
15968;SDS011;8085;53.472;9.794;2024-03-02T05:32:05;15.85;;;8.73;;
15968;SDS011;8085;53.472;9.794;2024-03-02T05:34:32;17.88;;;9.35;;
15968;SDS011;8085;53.472;9.794;2024-03-02T05:37:00;16.50;;;8.63;;
15968;SDS011;8085;53.472;9.794;2024-03-02T05:39:27;16.70;;;8.63;;
15968;SDS011;8085;53.472;9.794;2024-03-02T05:41:54;15.15;;;8.80;;
15968;SDS011;8085;53.472;9.794;2024-03-02T05:44:20;15.25;;;8.63;;
15968;SDS011;8085;53.472;9.794;2024-03-02T05:46:47;16.38;;;9.25;;
15968;SDS011;8085;53.472;9.794;2024-03-02T05:49:16;19.02;;;9.10;;
15968;SDS011;8085;53.472;9.794;2024-03-02T05:51:42;18.70;;;9.25;;
15968;SDS011;8085;53.472;9.794;2024-03-02T05:54:09;17.52;;;8.85;;
15968;SDS011;8085;53.472;9.794;2024-03-02T05:56:36;17.73;;;8.57;;
15968;SDS011;8085;53.472;9.794;2024-03-02T05:59:03;19.33;;;9.10;;
15968;SDS011;8085;53.472;9.794;2024-03-02T06:01:37;16.15;;;8.85;;
15968;SDS011;8085;53.472;9.794;2024-03-02T06:04:04;14.68;;;8.35;;
15968;SDS011;8085;53.472;9.794;2024-03-02T06:06:32;17.27;;;9.90;;
15968;SDS011;8085;53.472;9.794;2024-03-02T06:08:59;17.95;;;9.10;;
15968;SDS011;8085;53.472;9.794;2024-03-02T06:11:27;19.17;;;10.30;;
15968;SDS011;8085;53.472;9.794;2024-03-02T06:13:54;18.33;;;9.43;;
15968;SDS011;8085;53.472;9.794;2024-03-02T06:16:21;18.35;;;9.45;;
15968;SDS011;8085;53.472;9.794;2024-03-02T06:18:48;17.63;;;9.80;;
15968;SDS011;8085;53.472;9.794;2024-03-02T06:21:15;20.20;;;9.55;;
15968;SDS011;8085;53.472;9.794;2024-03-02T06:23:43;18.15;;;9.10;;
15968;SDS011;8085;53.472;9.794;2024-03-02T06:26:10;20.30;;;9.65;;
15968;SDS011;8085;53.472;9.794;2024-03-02T06:28:37;20.13;;;9.70;;
15968;SDS011;8085;53.472;9.794;2024-03-02T06:31:04;16.35;;;8.88;;
15968;SDS011;8085;53.472;9.794;2024-03-02T06:33:31;17.23;;;8.93;;
15968;SDS011;8085;53.472;9.794;2024-03-02T06:35:57;18.45;;;8.88;;
15968;SDS011;8085;53.472;9.794;2024-03-02T06:38:24;19.38;;;8.77;;
15968;SDS011;8085;53.472;9.794;2024-03-02T06:40:52;18.92;;;9.52;;
15968;SDS011;8085;53.472;9.794;2024-03-02T06:43:20;18.20;;;9.07;;
15968;SDS011;8085;53.472;9.794;2024-03-02T06:45:48;16.15;;;8.90;;
15968;SDS011;8085;53.472;9.794;2024-03-02T06:48:15;17.52;;;9.27;;
15968;SDS011;8085;53.472;9.794;2024-03-02T06:50:45;19.77;;;8.90;;
15968;SDS011;8085;53.472;9.794;2024-03-02T06:53:11;18.08;;;9.48;;
15968;SDS011;8085;53.472;9.794;2024-03-02T06:55:38;16.17;;;9.05;;
15968;SDS011;8085;53.472;9.794;2024-03-02T06:58:06;19.75;;;10.55;;
15968;SDS011;8085;53.472;9.794;2024-03-02T07:00:33;17.58;;;9.32;;
15968;SDS011;8085;53.472;9.794;2024-03-02T07:03:00;21.17;;;9.70;;
15968;SDS011;8085;53.472;9.794;2024-03-02T07:05:27;19.85;;;9.75;;
15968;SDS011;8085;53.472;9.794;2024-03-02T07:07:54;16.15;;;9.07;;
15968;SDS011;8085;53.472;9.794;2024-03-02T07:10:21;16.02;;;8.77;;
15968;SDS011;8085;53.472;9.794;2024-03-02T07:12:48;17.00;;;9.23;;
15968;SDS011;8085;53.472;9.794;2024-03-02T07:15:16;20.17;;;8.82;;
15968;SDS011;8085;53.472;9.794;2024-03-02T07:18:08;19.92;;;8.85;;
15968;SDS011;8085;53.472;9.794;2024-03-02T07:20:35;19.48;;;8.85;;
15968;SDS011;8085;53.472;9.794;2024-03-02T07:23:04;20.20;;;9.82;;
15968;SDS011;8085;53.472;9.794;2024-03-02T07:25:31;15.07;;;8.25;;
15968;SDS011;8085;53.472;9.794;2024-03-02T07:27:57;16.55;;;8.43;;
15968;SDS011;8085;53.472;9.794;2024-03-02T07:30:26;19.67;;;9.20;;
15968;SDS011;8085;53.472;9.794;2024-03-02T07:32:52;16.75;;;8.48;;
15968;SDS011;8085;53.472;9.794;2024-03-02T07:35:19;17.05;;;8.55;;
15968;SDS011;8085;53.472;9.794;2024-03-02T07:37:47;15.85;;;9.07;;
15968;SDS011;8085;53.472;9.794;2024-03-02T07:40:14;18.63;;;9.45;;
15968;SDS011;8085;53.472;9.794;2024-03-02T07:42:41;16.77;;;8.77;;
15968;SDS011;8085;53.472;9.794;2024-03-02T07:45:08;17.88;;;8.95;;
15968;SDS011;8085;53.472;9.794;2024-03-02T07:47:37;15.45;;;8.45;;
15968;SDS011;8085;53.472;9.794;2024-03-02T07:50:04;17.90;;;9.57;;
15968;SDS011;8085;53.472;9.794;2024-03-02T07:52:32;17.10;;;8.77;;
15968;SDS011;8085;53.472;9.794;2024-03-02T07:54:59;19.02;;;9.45;;
15968;SDS011;8085;53.472;9.794;2024-03-02T07:57:26;15.48;;;8.57;;
15968;SDS011;8085;53.472;9.794;2024-03-02T07:59:53;17.90;;;9.52;;
15968;SDS011;8085;53.472;9.794;2024-03-02T08:02:20;15.00;;;8.68;;
15968;SDS011;8085;53.472;9.794;2024-03-02T08:04:48;15.38;;;8.63;;
15968;SDS011;8085;53.472;9.794;2024-03-02T08:07:15;19.63;;;8.88;;
15968;SDS011;8085;53.472;9.794;2024-03-02T08:09:42;17.00;;;8.48;;
15968;SDS011;8085;53.472;9.794;2024-03-02T08:12:09;18.50;;;8.88;;
15968;SDS011;8085;53.472;9.794;2024-03-02T08:14:35;18.15;;;8.98;;
15968;SDS011;8085;53.472;9.794;2024-03-02T08:17:03;15.45;;;8.43;;
15968;SDS011;8085;53.472;9.794;2024-03-02T08:19:34;17.80;;;9.52;;
15968;SDS011;8085;53.472;9.794;2024-03-02T08:22:03;16.65;;;9.23;;
15968;SDS011;8085;53.472;9.794;2024-03-02T08:24:30;18.15;;;9.18;;
15968;SDS011;8085;53.472;9.794;2024-03-02T08:26:57;16.88;;;8.63;;
15968;SDS011;8085;53.472;9.794;2024-03-02T08:29:25;20.38;;;9.20;;
15968;SDS011;8085;53.472;9.794;2024-03-02T08:31:52;15.75;;;9.18;;
15968;SDS011;8085;53.472;9.794;2024-03-02T08:34:19;16.40;;;9.00;;
15968;SDS011;8085;53.472;9.794;2024-03-02T08:36:46;15.65;;;8.30;;
15968;SDS011;8085;53.472;9.794;2024-03-02T08:39:14;15.75;;;8.65;;
15968;SDS011;8085;53.472;9.794;2024-03-02T08:41:41;16.33;;;8.70;;
15968;SDS011;8085;53.472;9.794;2024-03-02T08:44:10;15.35;;;8.75;;
15968;SDS011;8085;53.472;9.794;2024-03-02T08:46:37;17.27;;;8.98;;
15968;SDS011;8085;53.472;9.794;2024-03-02T08:49:04;15.73;;;8.80;;
15968;SDS011;8085;53.472;9.794;2024-03-02T08:51:31;18.63;;;8.82;;
15968;SDS011;8085;53.472;9.794;2024-03-02T08:53:58;16.58;;;8.68;;
15968;SDS011;8085;53.472;9.794;2024-03-02T08:56:27;18.58;;;8.65;;
15968;SDS011;8085;53.472;9.794;2024-03-02T08:58:54;15.50;;;8.35;;
15968;SDS011;8085;53.472;9.794;2024-03-02T09:01:20;15.57;;;8.02;;
15968;SDS011;8085;53.472;9.794;2024-03-02T09:03:47;18.00;;;9.27;;
15968;SDS011;8085;53.472;9.794;2024-03-02T09:06:15;17.27;;;8.68;;
15968;SDS011;8085;53.472;9.794;2024-03-02T09:08:43;15.35;;;8.30;;
15968;SDS011;8085;53.472;9.794;2024-03-02T09:11:09;17.65;;;9.50;;
15968;SDS011;8085;53.472;9.794;2024-03-02T09:13:38;16.55;;;8.45;;
15968;SDS011;8085;53.472;9.794;2024-03-02T09:16:05;16.00;;;9.23;;
15968;SDS011;8085;53.472;9.794;2024-03-02T09:18:35;17.23;;;9.13;;
15968;SDS011;8085;53.472;9.794;2024-03-02T09:21:03;13.93;;;7.97;;
15968;SDS011;8085;53.472;9.794;2024-03-02T09:23:30;18.20;;;8.75;;
15968;SDS011;8085;53.472;9.794;2024-03-02T09:25:57;14.52;;;7.95;;
15968;SDS011;8085;53.472;9.794;2024-03-02T09:28:24;17.15;;;8.10;;
15968;SDS011;8085;53.472;9.794;2024-03-02T09:30:52;15.75;;;7.57;;
15968;SDS011;8085;53.472;9.794;2024-03-02T09:33:19;14.85;;;7.20;;
15968;SDS011;8085;53.472;9.794;2024-03-02T09:35:46;12.32;;;7.38;;
15968;SDS011;8085;53.472;9.794;2024-03-02T09:38:13;16.23;;;7.80;;
15968;SDS011;8085;53.472;9.794;2024-03-02T09:40:41;17.15;;;8.23;;
15968;SDS011;8085;53.472;9.794;2024-03-02T09:43:08;11.63;;;7.05;;
15968;SDS011;8085;53.472;9.794;2024-03-02T09:45:35;12.50;;;7.15;;
15968;SDS011;8085;53.472;9.794;2024-03-02T09:48:04;16.38;;;8.15;;
15968;SDS011;8085;53.472;9.794;2024-03-02T09:50:32;11.20;;;6.38;;
15968;SDS011;8085;53.472;9.794;2024-03-02T09:52:59;13.07;;;6.75;;
15968;SDS011;8085;53.472;9.794;2024-03-02T09:55:25;14.27;;;6.53;;
15968;SDS011;8085;53.472;9.794;2024-03-02T09:57:53;18.52;;;6.95;;
15968;SDS011;8085;53.472;9.794;2024-03-02T10:00:20;12.57;;;7.05;;
15968;SDS011;8085;53.472;9.794;2024-03-02T10:02:46;11.55;;;6.50;;
15968;SDS011;8085;53.472;9.794;2024-03-02T10:05:24;12.10;;;6.90;;
15968;SDS011;8085;53.472;9.794;2024-03-02T10:07:58;10.35;;;6.10;;
15968;SDS011;8085;53.472;9.794;2024-03-02T10:10:26;8.93;;;5.43;;
15968;SDS011;8085;53.472;9.794;2024-03-02T10:13:03;11.25;;;6.97;;
15968;SDS011;8085;53.472;9.794;2024-03-02T10:15:31;10.85;;;6.18;;
15968;SDS011;8085;53.472;9.794;2024-03-02T10:17:58;10.30;;;5.90;;
15968;SDS011;8085;53.472;9.794;2024-03-02T10:20:26;11.50;;;6.20;;
15968;SDS011;8085;53.472;9.794;2024-03-02T10:22:54;12.85;;;5.45;;
15968;SDS011;8085;53.472;9.794;2024-03-02T10:25:28;7.97;;;4.68;;
15968;SDS011;8085;53.472;9.794;2024-03-02T10:27:57;10.68;;;5.57;;
15968;SDS011;8085;53.472;9.794;2024-03-02T10:30:25;8.80;;;5.10;;
15968;SDS011;8085;53.472;9.794;2024-03-02T10:32:52;8.52;;;4.80;;
15968;SDS011;8085;53.472;9.794;2024-03-02T10:35:19;8.23;;;4.93;;
15968;SDS011;8085;53.472;9.794;2024-03-02T10:37:48;8.80;;;5.25;;
15968;SDS011;8085;53.472;9.794;2024-03-02T10:40:16;10.35;;;5.32;;
15968;SDS011;8085;53.472;9.794;2024-03-02T10:42:42;8.60;;;4.97;;
15968;SDS011;8085;53.472;9.794;2024-03-02T10:45:12;8.82;;;4.50;;
15968;SDS011;8085;53.472;9.794;2024-03-02T10:47:41;10.23;;;4.43;;
15968;SDS011;8085;53.472;9.794;2024-03-02T10:50:09;10.02;;;6.10;;
15968;SDS011;8085;53.472;9.794;2024-03-02T10:52:36;8.68;;;4.75;;
15968;SDS011;8085;53.472;9.794;2024-03-02T10:55:06;8.27;;;5.03;;
15968;SDS011;8085;53.472;9.794;2024-03-02T10:57:38;7.97;;;4.78;;
15968;SDS011;8085;53.472;9.794;2024-03-02T11:00:10;10.43;;;5.38;;
15968;SDS011;8085;53.472;9.794;2024-03-02T11:02:40;10.25;;;5.80;;
15968;SDS011;8085;53.472;9.794;2024-03-02T11:05:13;10.30;;;4.78;;
15968;SDS011;8085;53.472;9.794;2024-03-02T11:07:48;11.45;;;5.53;;
15968;SDS011;8085;53.472;9.794;2024-03-02T11:10:18;8.95;;;5.68;;
15968;SDS011;8085;53.472;9.794;2024-03-02T11:12:47;7.35;;;4.43;;
15968;SDS011;8085;53.472;9.794;2024-03-02T11:15:21;11.35;;;4.47;;
15968;SDS011;8085;53.472;9.794;2024-03-02T11:17:51;9.27;;;4.93;;
15968;SDS011;8085;53.472;9.794;2024-03-02T11:20:19;7.07;;;3.55;;
15968;SDS011;8085;53.472;9.794;2024-03-02T11:22:47;7.43;;;4.25;;
15968;SDS011;8085;53.472;9.794;2024-03-02T11:25:25;6.40;;;3.65;;
15968;SDS011;8085;53.472;9.794;2024-03-02T11:28:05;7.72;;;3.70;;
15968;SDS011;8085;53.472;9.794;2024-03-02T11:30:50;6.40;;;3.33;;
15968;SDS011;8085;53.472;9.794;2024-03-02T11:33:24;6.88;;;4.43;;
15968;SDS011;8085;53.472;9.794;2024-03-02T11:35:56;7.45;;;3.58;;
15968;SDS011;8085;53.472;9.794;2024-03-02T11:38:30;5.72;;;3.70;;
15968;SDS011;8085;53.472;9.794;2024-03-02T11:41:00;8.82;;;3.63;;
15968;SDS011;8085;53.472;9.794;2024-03-02T11:43:28;5.57;;;3.58;;
15968;SDS011;8085;53.472;9.794;2024-03-02T11:45:59;4.65;;;3.30;;
15968;SDS011;8085;53.472;9.794;2024-03-02T11:48:29;4.90;;;3.10;;
15968;SDS011;8085;53.472;9.794;2024-03-02T11:50:57;4.32;;;2.92;;
15968;SDS011;8085;53.472;9.794;2024-03-02T11:53:28;5.22;;;3.28;;
15968;SDS011;8085;53.472;9.794;2024-03-02T11:55:55;4.65;;;2.92;;
15968;SDS011;8085;53.472;9.794;2024-03-02T11:58:23;5.80;;;3.60;;
15968;SDS011;8085;53.472;9.794;2024-03-02T12:00:52;7.35;;;4.13;;
15968;SDS011;8085;53.472;9.794;2024-03-02T12:03:21;8.82;;;3.80;;
15968;SDS011;8085;53.472;9.794;2024-03-02T12:05:50;6.63;;;4.03;;
15968;SDS011;8085;53.472;9.794;2024-03-02T12:08:18;5.53;;;3.65;;
15968;SDS011;8085;53.472;9.794;2024-03-02T12:10:55;4.60;;;3.08;;
15968;SDS011;8085;53.472;9.794;2024-03-02T12:13:24;5.90;;;3.38;;
15968;SDS011;8085;53.472;9.794;2024-03-02T12:15:52;6.00;;;3.13;;
15968;SDS011;8085;53.472;9.794;2024-03-02T12:18:20;5.00;;;3.58;;
15968;SDS011;8085;53.472;9.794;2024-03-02T12:20:48;7.68;;;3.92;;
15968;SDS011;8085;53.472;9.794;2024-03-02T12:23:17;6.03;;;3.42;;
15968;SDS011;8085;53.472;9.794;2024-03-02T12:25:44;5.00;;;3.00;;
15968;SDS011;8085;53.472;9.794;2024-03-02T12:28:12;5.05;;;3.00;;
15968;SDS011;8085;53.472;9.794;2024-03-02T12:30:40;6.97;;;2.70;;
15968;SDS011;8085;53.472;9.794;2024-03-02T12:33:07;5.72;;;3.67;;
15968;SDS011;8085;53.472;9.794;2024-03-02T12:35:35;4.57;;;2.72;;
15968;SDS011;8085;53.472;9.794;2024-03-02T12:38:02;8.52;;;3.28;;
15968;SDS011;8085;53.472;9.794;2024-03-02T12:40:30;6.03;;;3.25;;
15968;SDS011;8085;53.472;9.794;2024-03-02T12:42:57;6.38;;;3.28;;
15968;SDS011;8085;53.472;9.794;2024-03-02T12:45:24;4.25;;;2.75;;
15968;SDS011;8085;53.472;9.794;2024-03-02T12:47:52;6.18;;;3.55;;
15968;SDS011;8085;53.472;9.794;2024-03-02T12:50:19;5.93;;;3.10;;
15968;SDS011;8085;53.472;9.794;2024-03-02T12:52:51;5.18;;;3.28;;
15968;SDS011;8085;53.472;9.794;2024-03-02T12:55:19;5.57;;;3.55;;
15968;SDS011;8085;53.472;9.794;2024-03-02T12:57:46;4.68;;;3.13;;
15968;SDS011;8085;53.472;9.794;2024-03-02T13:00:13;9.25;;;3.90;;
15968;SDS011;8085;53.472;9.794;2024-03-02T13:02:41;5.88;;;3.38;;
15968;SDS011;8085;53.472;9.794;2024-03-02T13:05:10;5.93;;;3.78;;
15968;SDS011;8085;53.472;9.794;2024-03-02T13:07:37;5.10;;;3.00;;
15968;SDS011;8085;53.472;9.794;2024-03-02T13:10:04;5.97;;;3.90;;
15968;SDS011;8085;53.472;9.794;2024-03-02T13:12:32;6.65;;;3.33;;
15968;SDS011;8085;53.472;9.794;2024-03-02T13:14:59;8.63;;;3.70;;
15968;SDS011;8085;53.472;9.794;2024-03-02T13:17:27;7.68;;;3.75;;
15968;SDS011;8085;53.472;9.794;2024-03-02T13:19:54;6.18;;;3.45;;
15968;SDS011;8085;53.472;9.794;2024-03-02T13:22:24;5.15;;;3.20;;
15968;SDS011;8085;53.472;9.794;2024-03-02T13:24:51;6.70;;;3.20;;
15968;SDS011;8085;53.472;9.794;2024-03-02T13:27:19;6.00;;;2.90;;
15968;SDS011;8085;53.472;9.794;2024-03-02T13:29:46;4.97;;;3.10;;
15968;SDS011;8085;53.472;9.794;2024-03-02T13:32:13;6.60;;;3.67;;
15968;SDS011;8085;53.472;9.794;2024-03-02T13:34:40;5.05;;;3.38;;
15968;SDS011;8085;53.472;9.794;2024-03-02T13:37:07;5.97;;;2.92;;
15968;SDS011;8085;53.472;9.794;2024-03-02T13:39:36;5.78;;;2.80;;
15968;SDS011;8085;53.472;9.794;2024-03-02T13:42:07;5.68;;;2.70;;
15968;SDS011;8085;53.472;9.794;2024-03-02T13:44:35;4.65;;;3.10;;
15968;SDS011;8085;53.472;9.794;2024-03-02T13:47:03;6.25;;;2.97;;
15968;SDS011;8085;53.472;9.794;2024-03-02T13:49:30;5.28;;;2.75;;
15968;SDS011;8085;53.472;9.794;2024-03-02T13:52:01;5.97;;;2.72;;
15968;SDS011;8085;53.472;9.794;2024-03-02T13:54:38;4.78;;;2.60;;
15968;SDS011;8085;53.472;9.794;2024-03-02T13:57:05;4.55;;;2.70;;
15968;SDS011;8085;53.472;9.794;2024-03-02T13:59:33;5.00;;;3.53;;
15968;SDS011;8085;53.472;9.794;2024-03-02T14:02:00;3.97;;;2.78;;
15968;SDS011;8085;53.472;9.794;2024-03-02T14:04:29;4.43;;;2.90;;
15968;SDS011;8085;53.472;9.794;2024-03-02T14:06:56;5.60;;;3.33;;
15968;SDS011;8085;53.472;9.794;2024-03-02T14:09:26;5.45;;;3.03;;
15968;SDS011;8085;53.472;9.794;2024-03-02T14:11:54;4.53;;;3.10;;
15968;SDS011;8085;53.472;9.794;2024-03-02T14:14:22;5.65;;;2.97;;
15968;SDS011;8085;53.472;9.794;2024-03-02T14:16:49;4.78;;;2.70;;
15968;SDS011;8085;53.472;9.794;2024-03-02T14:19:16;7.20;;;3.22;;
15968;SDS011;8085;53.472;9.794;2024-03-02T14:21:43;6.72;;;2.85;;
15968;SDS011;8085;53.472;9.794;2024-03-02T14:24:10;4.50;;;3.15;;
15968;SDS011;8085;53.472;9.794;2024-03-02T14:26:37;5.07;;;3.00;;
15968;SDS011;8085;53.472;9.794;2024-03-02T14:29:05;4.00;;;2.75;;
15968;SDS011;8085;53.472;9.794;2024-03-02T14:31:32;5.75;;;3.65;;
15968;SDS011;8085;53.472;9.794;2024-03-02T14:33:59;5.25;;;3.50;;
15968;SDS011;8085;53.472;9.794;2024-03-02T14:36:27;4.82;;;2.67;;
15968;SDS011;8085;53.472;9.794;2024-03-02T14:38:54;5.72;;;2.67;;
15968;SDS011;8085;53.472;9.794;2024-03-02T14:41:21;3.55;;;2.80;;
15968;SDS011;8085;53.472;9.794;2024-03-02T14:43:49;6.43;;;3.22;;
15968;SDS011;8085;53.472;9.794;2024-03-02T14:46:17;4.85;;;2.95;;
15968;SDS011;8085;53.472;9.794;2024-03-02T14:48:45;3.45;;;2.65;;
15968;SDS011;8085;53.472;9.794;2024-03-02T14:51:12;3.72;;;2.25;;
15968;SDS011;8085;53.472;9.794;2024-03-02T14:53:39;4.30;;;2.88;;
15968;SDS011;8085;53.472;9.794;2024-03-02T14:56:06;6.90;;;3.22;;
15968;SDS011;8085;53.472;9.794;2024-03-02T14:58:33;5.07;;;2.88;;